Time;durP1;ratioP1;P1;durP2;ratioP2;P2;SDS_P1;SDS_P2;PMS_P1;PMS_P2;Temp;Humidity;BMP_temperature;BMP_pressure;BME280_temperature;BME280_humidity;BME280_pressure;Samples;Min_cycle;Max_cycle;Signal;HPM_P1;HPM_P2
2022/07/16 00:02:51;;;;;;;4.53;3.00;;;17.70;71.60;;;;;;5056201;28;20028;-74
2022/07/16 00:05:16;;;;;;;6.32;3.08;;;17.70;71.80;;;;;;5055792;28;20474;-74
2022/07/16 00:07:42;;;;;;;5.85;3.10;;;17.60;71.90;;;;;;5054724;28;20021;-75
2022/07/16 00:10:08;;;;;;;3.35;2.42;;;17.60;72.10;;;;;;5052907;28;20104;-74
2022/07/16 00:12:34;;;;;;;4.15;2.72;;;17.50;72.20;;;;;;5057950;28;20032;-75
2022/07/16 00:14:59;;;;;;;4.15;2.53;;;17.50;72.40;;;;;;5054413;28;20394;-73
2022/07/16 00:17:25;;;;;;;5.80;3.17;;;17.40;72.50;;;;;;5052995;28;20086;-76
2022/07/16 00:19:51;;;;;;;5.43;2.70;;;17.40;72.70;;;;;;5058094;28;20028;-75
2022/07/16 00:22:16;;;;;;;4.30;2.80;;;17.40;72.80;;;;;;5053968;28;20016;-75
2022/07/16 00:24:42;;;;;;;4.72;2.95;;;17.30;73.10;;;;;;5052289;28;20059;-74
2022/07/16 00:27:08;;;;;;;4.90;2.72;;;17.20;73.20;;;;;;5052555;28;20060;-75
2022/07/16 00:29:34;;;;;;;7.20;3.08;;;17.20;73.20;;;;;;5053790;28;20029;-74
2022/07/16 00:31:59;;;;;;;8.45;3.63;;;17.20;73.20;;;;;;5053612;28;20394;-75
2022/07/16 00:34:25;;;;;;;5.90;3.25;;;17.20;73.20;;;;;;5054485;28;20036;-75
2022/07/16 00:36:51;;;;;;;5.80;2.83;;;17.20;73.20;;;;;;5056527;28;20044;-75
2022/07/16 00:39:17;;;;;;;5.07;2.83;;;17.20;73.20;;;;;;5054073;28;20055;-75
2022/07/16 00:41:46;;;;;;;5.90;2.75;;;17.20;73.10;;;;;;5053775;28;20071;-75
2022/07/16 00:44:16;;;;;;;5.22;2.95;;;17.10;73.00;;;;;;5055120;28;20032;-75
2022/07/16 00:46:42;;;;;;;6.50;3.13;;;17.10;73.70;;;;;;5052173;28;20044;-75
2022/07/16 00:49:08;;;;;;;4.35;2.63;;;17.10;73.10;;;;;;5053935;28;20134;-75
2022/07/16 00:51:35;;;;;;;4.93;2.78;;;17.00;73.20;;;;;;5054244;28;20029;-75
2022/07/16 00:54:02;;;;;;;6.80;2.97;;;17.00;73.40;;;;;;5053258;28;20029;-76
2022/07/16 00:56:28;;;;;;;3.90;2.72;;;17.00;73.60;;;;;;5075078;28;20116;-75
2022/07/16 00:58:55;;;;;;;4.78;2.80;;;16.90;73.60;;;;;;5052375;28;20049;-76
2022/07/16 01:01:21;;;;;;;3.40;2.55;;;16.90;73.70;;;;;;5054906;28;20470;-75
2022/07/16 01:03:47;;;;;;;6.07;2.50;;;16.90;73.80;;;;;;5050521;28;20029;-75
2022/07/16 01:06:14;;;;;;;7.50;3.20;;;16.80;74.50;;;;;;5048363;28;20036;-73
2022/07/16 01:08:42;;;;;;;4.70;3.10;;;16.80;74.20;;;;;;5051127;28;20723;-74
2022/07/16 01:11:11;;;;;;;4.28;2.53;;;16.80;74.30;;;;;;5062204;28;20032;-75
2022/07/16 01:13:42;;;;;;;5.50;2.63;;;16.70;74.40;;;;;;5052130;28;20466;-76
2022/07/16 01:16:09;;;;;;;4.63;3.20;;;16.70;74.50;;;;;;5053505;28;20457;-73
2022/07/16 01:18:35;;;;;;;4.38;2.60;;;16.70;74.60;;;;;;5052637;28;20040;-75
2022/07/16 01:21:01;;;;;;;6.22;3.05;;;16.70;74.90;;;;;;5050968;28;20033;-73
2022/07/16 01:23:27;;;;;;;7.18;2.95;;;16.60;75.00;;;;;;5045658;28;20025;-75
2022/07/16 01:25:53;;;;;;;4.07;3.00;;;16.60;75.00;;;;;;5052538;28;20056;-74
2022/07/16 01:28:19;;;;;;;6.50;2.63;;;16.60;75.00;;;;;;5065939;28;20048;-75
2022/07/16 01:30:46;;;;;;;3.97;2.90;;;16.60;75.10;;;;;;5055487;28;20036;-75
2022/07/16 01:33:20;;;;;;;4.03;2.85;;;16.50;75.10;;;;;;5055939;28;20063;-74
2022/07/16 01:35:46;;;;;;;4.32;2.80;;;16.50;75.20;;;;;;5056697;28;20084;-74
2022/07/16 01:38:11;;;;;;;5.50;2.72;;;16.50;75.20;;;;;;5053619;28;20053;-75
2022/07/16 01:40:37;;;;;;;5.35;2.97;;;16.50;75.40;;;;;;5052743;28;20482;-75
2022/07/16 01:43:03;;;;;;;5.03;3.15;;;16.40;75.30;;;;;;5057100;28;20017;-75
2022/07/16 01:45:28;;;;;;;5.25;3.20;;;16.40;75.50;;;;;;5073725;28;20957;-75
2022/07/16 01:47:54;;;;;;;6.78;3.15;;;16.30;75.70;;;;;;5053245;28;20029;-75
2022/07/16 01:50:19;;;;;;;3.53;2.83;;;16.30;76.40;;;;;;5050208;28;20032;-75
2022/07/16 01:52:45;;;;;;;5.53;3.25;;;16.30;75.90;;;;;;5051393;28;20047;-76
2022/07/16 01:55:11;;;;;;;6.50;3.47;;;16.30;76.10;;;;;;5056441;28;20120;-75
2022/07/16 01:57:37;;;;;;;5.65;2.88;;;16.20;76.20;;;;;;5052055;28;20029;-75
2022/07/16 02:00:03;;;;;;;5.82;3.25;;;16.10;76.30;;;;;;5052635;28;20028;-75
2022/07/16 02:02:29;;;;;;;5.10;2.92;;;16.10;76.70;;;;;;5054562;28;20040;-75
2022/07/16 02:04:55;;;;;;;8.95;3.42;;;16.00;76.70;;;;;;5050264;28;20072;-75
2022/07/16 02:07:20;;;;;;;5.72;3.15;;;16.00;77.00;;;;;;5050942;28;20082;-75
2022/07/16 02:09:46;;;;;;;5.05;3.05;;;15.90;77.00;;;;;;5052374;28;20021;-75
2022/07/16 02:12:12;;;;;;;4.43;3.10;;;15.90;77.10;;;;;;5048333;28;20402;-74
2022/07/16 02:14:37;;;;;;;4.03;2.55;;;15.90;77.30;;;;;;5052894;28;20033;-74
2022/07/16 02:17:03;;;;;;;4.75;2.78;;;15.90;77.40;;;;;;5059433;28;20017;-75
2022/07/16 02:19:29;;;;;;;4.43;2.92;;;15.80;77.40;;;;;;5052209;28;20150;-74
2022/07/16 02:21:54;;;;;;;5.18;3.05;;;15.90;77.50;;;;;;5052511;28;20473;-75
2022/07/16 02:24:20;;;;;;;4.65;3.28;;;15.80;77.70;;;;;;5049811;28;20089;-75
2022/07/16 02:26:45;;;;;;;3.88;2.75;;;15.80;77.60;;;;;;5048036;28;20516;-74
2022/07/16 02:29:11;;;;;;;4.78;3.00;;;15.80;77.70;;;;;;5048115;28;20033;-75
2022/07/16 02:31:37;;;;;;;3.95;2.78;;;15.80;77.70;;;;;;5054623;28;20048;-75
2022/07/16 02:34:03;;;;;;;4.68;2.55;;;15.70;77.70;;;;;;5051598;28;20031;-74
2022/07/16 02:36:28;;;;;;;5.22;2.83;;;15.70;77.80;;;;;;5051756;28;20065;-75
2022/07/16 02:38:54;;;;;;;8.38;3.50;;;15.70;78.00;;;;;;5054882;28;20055;-75
2022/07/16 02:41:19;;;;;;;6.78;3.47;;;15.60;77.90;;;;;;5056643;28;20039;-74
2022/07/16 02:43:45;;;;;;;6.80;3.50;;;15.60;77.90;;;;;;5052801;28;20024;-75
2022/07/16 02:46:11;;;;;;;5.93;3.50;;;15.60;78.00;;;;;;5054218;28;20025;-74
2022/07/16 02:48:36;;;;;;;4.70;3.13;;;15.60;78.10;;;;;;5051986;28;20025;-74
2022/07/16 02:51:02;;;;;;;6.25;3.53;;;15.60;78.10;;;;;;5057620;28;20043;-78
2022/07/16 02:53:28;;;;;;;4.68;2.70;;;15.60;78.00;;;;;;5053143;28;20053;-77
2022/07/16 02:55:54;;;;;;;9.55;2.92;;;15.60;78.10;;;;;;5057495;28;20059;-79
2022/07/16 02:58:21;;;;;;;6.90;3.20;;;15.50;78.20;;;;;;5056845;28;20123;-79
2022/07/16 03:00:47;;;;;;;8.23;3.47;;;15.50;78.30;;;;;;5059756;28;20474;-77
2022/07/16 03:03:12;;;;;;;5.35;3.08;;;15.50;78.40;;;;;;5054322;28;20037;-79
2022/07/16 03:05:38;;;;;;;6.07;2.80;;;15.50;78.50;;;;;;5063039;28;20028;-79
2022/07/16 03:08:05;;;;;;;5.28;3.58;;;15.40;78.60;;;;;;5054041;28;20096;-77
2022/07/16 03:10:30;;;;;;;6.88;3.00;;;15.40;78.70;;;;;;5055833;28;20167;-79
2022/07/16 03:12:56;;;;;;;7.60;4.07;;;15.40;78.80;;;;;;5062057;28;20048;-78
2022/07/16 03:15:22;;;;;;;5.70;2.60;;;15.40;78.70;;;;;;5055484;28;20099;-77
2022/07/16 03:17:47;;;;;;;4.38;3.05;;;15.40;78.70;;;;;;5059704;28;20041;-76
2022/07/16 03:20:13;;;;;;;4.85;3.13;;;15.40;78.80;;;;;;5056753;28;20031;-77
2022/07/16 03:22:43;;;;;;;8.48;3.60;;;15.30;78.90;;;;;;5058224;28;20032;-77
2022/07/16 03:25:09;;;;;;;4.40;3.08;;;15.20;79.10;;;;;;5053760;28;20025;-78
2022/07/16 03:27:34;;;;;;;5.47;3.05;;;15.20;79.30;;;;;;5068902;28;20032;-79
2022/07/16 03:30:00;;;;;;;5.20;3.10;;;15.20;79.50;;;;;;5051502;28;20103;-79
2022/07/16 03:32:26;;;;;;;3.83;3.00;;;15.10;79.60;;;;;;5050035;28;20025;-80
2022/07/16 03:34:51;;;;;;;6.82;3.40;;;15.10;79.70;;;;;;5046957;28;20116;-80
2022/07/16 03:37:17;;;;;;;4.38;2.95;;;15.10;79.70;;;;;;5050411;28;20025;-77
2022/07/16 03:39:43;;;;;;;6.38;3.58;;;15.00;79.70;;;;;;5047144;28;20032;-77
2022/07/16 03:42:08;;;;;;;6.05;3.60;;;15.00;79.70;;;;;;5047026;28;20032;-77
2022/07/16 03:44:34;;;;;;;4.13;3.58;;;15.00;79.90;;;;;;5049903;28;20035;-77
2022/07/16 03:47:00;;;;;;;6.22;3.35;;;15.00;80.00;;;;;;5050277;28;20029;-77
2022/07/16 03:49:26;;;;;;;6.57;3.53;;;15.00;80.10;;;;;;5048468;28;20053;-75
2022/07/16 03:51:52;;;;;;;5.78;3.15;;;15.00;80.20;;;;;;5048306;28;20048;-76
2022/07/16 03:54:17;;;;;;;6.05;3.10;;;15.00;80.30;;;;;;5048195;28;20393;-77
2022/07/16 03:56:43;;;;;;;5.28;3.22;;;15.00;80.30;;;;;;5044423;28;20513;-75
2022/07/16 03:59:10;;;;;;;4.38;2.78;;;15.00;80.30;;;;;;5035950;28;21234;-76
2022/07/16 04:01:36;;;;;;;5.68;3.70;;;15.00;80.30;;;;;;5048208;28;20029;-77
2022/07/16 04:04:02;;;;;;;6.30;3.67;;;14.90;80.30;;;;;;5052815;28;20453;-77
2022/07/16 04:06:27;;;;;;;6.00;3.47;;;15.00;80.40;;;;;;5049637;28;20119;-77
2022/07/16 04:08:53;;;;;;;5.38;3.25;;;14.90;80.30;;;;;;5050794;28;20112;-76
2022/07/16 04:11:19;;;;;;;3.92;2.95;;;15.00;80.40;;;;;;5050673;28;20470;-76
2022/07/16 04:13:44;;;;;;;5.82;3.38;;;15.00;80.40;;;;;;5074595;28;20025;-77
2022/07/16 04:16:11;;;;;;;7.20;3.28;;;15.00;80.40;;;;;;5047577;28;20025;-78
2022/07/16 04:18:37;;;;;;;5.93;3.65;;;15.00;80.40;;;;;;5050051;28;20303;-79
2022/07/16 04:21:05;;;;;;;8.30;3.63;;;15.00;80.50;;;;;;5059935;28;20020;-78
2022/07/16 04:23:30;;;;;;;4.32;3.20;;;14.90;80.50;;;;;;5053082;28;20028;-76
2022/07/16 04:25:56;;;;;;;7.25;3.53;;;14.90;80.50;;;;;;5053302;28;20029;-77
2022/07/16 04:28:22;;;;;;;7.78;3.53;;;14.90;80.60;;;;;;5072152;28;20029;-78
2022/07/16 04:30:48;;;;;;;5.07;3.42;;;15.00;80.70;;;;;;5059656;28;20100;-77
2022/07/16 04:33:13;;;;;;;7.82;3.67;;;15.00;80.60;;;;;;5055476;28;20024;-77
2022/07/16 04:35:39;;;;;;;4.00;2.90;;;15.00;80.60;;;;;;5052913;28;20033;-77
2022/07/16 04:38:05;;;;;;;6.88;3.92;;;15.10;80.50;;;;;;5057294;28;20029;-76
2022/07/16 04:40:31;;;;;;;4.63;3.40;;;15.10;80.30;;;;;;5054453;28;20025;-77
2022/07/16 04:42:56;;;;;;;6.60;3.03;;;15.20;80.20;;;;;;5058825;28;20025;-78
2022/07/16 04:45:22;;;;;;;7.82;3.80;;;15.20;80.10;;;;;;5058763;28;20108;-77
2022/07/16 04:47:48;;;;;;;9.43;3.63;;;15.30;80.00;;;;;;5060047;28;20041;-77
2022/07/16 04:50:13;;;;;;;6.90;3.80;;;15.40;79.70;;;;;;5053974;28;20052;-77
2022/07/16 04:52:39;;;;;;;10.07;3.58;;;15.50;79.80;;;;;;5056857;28;20394;-79
2022/07/16 04:55:05;;;;;;;6.68;3.67;;;15.60;79.20;;;;;;5052123;28;20478;-78
2022/07/16 04:57:31;;;;;;;5.13;3.25;;;15.80;79.00;;;;;;5053016;28;20029;-77
2022/07/16 04:59:57;;;;;;;6.38;3.40;;;15.90;78.60;;;;;;5061787;28;20086;-77
2022/07/16 05:05:08;;;;;;;5.65;3.42;;;16.20;77.90;;;;;;5054272;28;20393;-79
2022/07/16 05:07:34;;;;;;;4.03;3.15;;;16.40;77.50;;;;;;5048255;28;20054;-77
2022/07/16 05:09:59;;;;;;;4.60;3.40;;;16.50;77.00;;;;;;5053011;28;20035;-78
2022/07/16 05:12:25;;;;;;;8.73;4.00;;;16.60;76.70;;;;;;5056874;28;20037;-80
2022/07/16 05:14:50;;;;;;;5.63;3.75;;;16.80;76.60;;;;;;5054318;28;20033;-77
2022/07/16 05:17:16;;;;;;;10.38;4.20;;;16.90;76.40;;;;;;5064594;28;20381;-77
2022/07/16 05:19:42;;;;;;;7.50;5.18;;;17.10;76.20;;;;;;5062966;28;20040;-79
2022/07/16 05:22:07;;;;;;;6.68;4.90;;;17.30;76.00;;;;;;5056795;28;20028;-71
2022/07/16 05:24:34;;;;;;;7.15;4.90;;;17.50;75.90;;;;;;5049871;28;20473;-72
2022/07/16 05:27:00;;;;;;;7.13;4.43;;;17.60;75.60;;;;;;5052403;28;20401;-72
2022/07/16 05:29:25;;;;;;;8.43;5.05;;;17.80;75.10;;;;;;5056412;28;20025;-72
2022/07/16 05:31:51;;;;;;;10.43;4.70;;;17.90;74.50;;;;;;5047544;28;20029;-71
2022/07/16 05:34:17;;;;;;;9.90;4.93;;;18.10;74.30;;;;;;5051828;28;20025;-72
2022/07/16 05:36:43;;;;;;;6.53;4.93;;;18.30;74.20;;;;;;5057161;28;20051;-72
2022/07/16 05:39:08;;;;;;;9.70;5.65;;;18.40;73.70;;;;;;5048300;28;20440;-72
2022/07/16 05:41:34;;;;;;;7.45;4.57;;;18.50;73.30;;;;;;5050375;28;20393;-72
2022/07/16 05:44:00;;;;;;;6.82;4.70;;;18.60;72.70;;;;;;5047371;28;20435;-72
2022/07/16 05:46:26;;;;;;;10.82;4.78;;;18.70;72.60;;;;;;5051812;28;20037;-76
2022/07/16 05:48:52;;;;;;;8.73;5.22;;;18.80;72.20;;;;;;5061666;28;20025;-77
2022/07/16 05:51:17;;;;;;;12.30;5.10;;;19.00;71.90;;;;;;5051830;28;20083;-77
2022/07/16 05:53:43;;;;;;;7.57;4.93;;;19.00;71.40;;;;;;5070969;28;20029;-79
2022/07/16 05:56:08;;;;;;;6.57;4.70;;;19.10;71.10;;;;;;5069164;28;20031;-78
2022/07/16 05:58:34;;;;;;;6.72;4.75;;;19.20;70.60;;;;;;5057596;28;20383;-77
2022/07/16 06:01:00;;;;;;;9.02;4.72;;;19.30;70.60;;;;;;5057289;28;20027;-78
2022/07/16 06:03:26;;;;;;;7.03;4.50;;;19.40;70.60;;;;;;5058940;28;20086;-78
2022/07/16 06:05:51;;;;;;;7.55;4.95;;;19.40;70.20;;;;;;5051996;28;20024;-79
2022/07/16 06:08:17;;;;;;;12.18;4.85;;;19.60;69.50;;;;;;5058213;28;20470;-80
2022/07/16 06:10:43;;;;;;;8.77;4.47;;;19.60;69.10;;;;;;5054137;28;20086;-77
2022/07/16 06:13:10;;;;;;;9.13;4.57;;;19.60;69.00;;;;;;5056084;28;20070;-77
2022/07/16 06:15:36;;;;;;;8.25;4.38;;;19.70;69.00;;;;;;5051584;28;20033;-76
2022/07/16 06:18:01;;;;;;;6.35;4.00;;;19.80;69.10;;;;;;5048497;28;20048;-77
2022/07/16 06:20:27;;;;;;;7.32;4.75;;;19.90;68.90;;;;;;5054862;28;20399;-77
2022/07/16 06:22:54;;;;;;;8.10;3.90;;;20.00;68.30;;;;;;5048682;28;20024;-77
2022/07/16 06:25:20;;;;;;;6.03;3.85;;;20.00;68.20;;;;;;5046052;28;20036;-78
2022/07/16 06:27:46;;;;;;;8.70;4.90;;;20.10;68.40;;;;;;5063358;28;21140;-78
2022/07/16 06:30:13;;;;;;;7.38;4.18;;;20.10;68.30;;;;;;5057260;28;20059;-76
2022/07/16 06:32:39;;;;;;;8.30;4.88;;;20.30;68.10;;;;;;5056741;28;20044;-78
2022/07/16 06:35:06;;;;;;;5.95;4.07;;;20.30;68.10;;;;;;5059220;28;20683;-78
2022/07/16 06:37:31;;;;;;;4.97;3.85;;;20.40;67.90;;;;;;5054953;28;20036;-77
2022/07/16 06:39:57;;;;;;;7.63;4.05;;;20.40;67.70;;;;;;5057078;28;20052;-77
2022/07/16 06:42:23;;;;;;;8.88;3.40;;;20.40;67.80;;;;;;5060169;28;20029;-75
2022/07/16 06:44:49;;;;;;;4.57;3.00;;;20.50;68.00;;;;;;5050529;28;20021;-75
2022/07/16 06:47:14;;;;;;;5.95;3.55;;;20.50;68.00;;;;;;5068698;28;20061;-77
2022/07/16 06:49:40;;;;;;;7.72;3.42;;;20.50;68.10;;;;;;5053543;28;20056;-77
2022/07/16 06:52:05;;;;;;;6.68;4.05;;;20.50;68.00;;;;;;5056819;28;20142;-77
2022/07/16 06:54:31;;;;;;;6.53;4.30;;;20.40;68.20;;;;;;5066785;28;20116;-78
2022/07/16 06:56:57;;;;;;;6.47;4.38;;;20.30;68.50;;;;;;5053134;28;20088;-77
2022/07/16 06:59:22;;;;;;;5.47;3.85;;;20.30;69.00;;;;;;5052625;28;20027;-74
2022/07/16 07:01:48;;;;;;;6.25;4.40;;;20.30;69.00;;;;;;5054234;28;20025;-76
2022/07/16 07:04:14;;;;;;;7.25;3.97;;;20.20;69.10;;;;;;5058938;28;20571;-77
2022/07/16 07:06:39;;;;;;;5.45;4.07;;;20.20;69.20;;;;;;5063963;28;20041;-77
2022/07/16 07:09:05;;;;;;;7.35;3.72;;;20.10;68.70;;;;;;5048615;28;20039;-76
2022/07/16 07:11:30;;;;;;;6.40;3.85;;;20.10;68.90;;;;;;5071028;28;20119;-77
2022/07/16 07:13:56;;;;;;;5.50;3.60;;;20.20;68.40;;;;;;5051437;28;20033;-77
2022/07/16 07:16:22;;;;;;;5.72;3.53;;;20.10;68.30;;;;;;5051301;28;20029;-77
2022/07/16 07:18:48;;;;;;;6.40;4.18;;;20.10;67.80;;;;;;5051373;28;20568;-77
2022/07/16 07:21:14;;;;;;;7.85;4.07;;;20.20;67.60;;;;;;5050267;28;20041;-77
2022/07/16 07:23:40;;;;;;;6.53;4.13;;;20.20;67.70;;;;;;5053045;28;20028;-76
2022/07/16 07:26:05;;;;;;;9.55;4.97;;;20.20;67.40;;;;;;5051760;28;20029;-75
2022/07/16 07:28:31;;;;;;;10.90;4.97;;;20.20;67.70;;;;;;5056463;28;20094;-77
2022/07/16 07:30:57;;;;;;;6.55;4.15;;;20.20;67.80;;;;;;5054658;28;20032;-79
2022/07/16 07:33:24;;;;;;;8.38;3.72;;;20.10;67.60;;;;;;5059426;28;20031;-77
2022/07/16 07:35:50;;;;;;;9.40;4.35;;;20.10;67.80;;;;;;5054349;28;20028;-77
2022/07/16 07:38:16;;;;;;;7.63;3.88;;;20.10;68.30;;;;;;5052925;28;20025;-77
2022/07/16 07:40:41;;;;;;;9.55;3.95;;;20.20;68.10;;;;;;5057930;28;20378;-77
2022/07/16 07:43:07;;;;;;;7.97;3.85;;;20.20;66.80;;;;;;5050530;28;20025;-76
2022/07/16 07:45:32;;;;;;;10.13;3.72;;;20.20;66.50;;;;;;5052726;28;20029;-76
2022/07/16 07:47:58;;;;;;;7.30;4.28;;;20.20;66.80;;;;;;5050973;28;20401;-76
2022/07/16 07:50:24;;;;;;;9.02;3.80;;;20.30;66.20;;;;;;5052125;28;20494;-77
2022/07/16 07:52:50;;;;;;;10.18;4.00;;;20.30;65.50;;;;;;5052631;28;20029;-76
2022/07/16 07:55:16;;;;;;;7.05;3.50;;;20.40;65.60;;;;;;5050339;28;20428;-76
2022/07/16 07:57:42;;;;;;;9.95;3.85;;;20.50;65.50;;;;;;5048791;28;20040;-76
2022/07/16 08:00:09;;;;;;;4.57;2.72;;;20.60;65.40;;;;;;5054789;28;20109;-76
2022/07/16 08:02:35;;;;;;;6.13;3.53;;;20.70;64.80;;;;;;5066311;28;20021;-76
2022/07/16 08:05:00;;;;;;;4.70;2.90;;;20.70;64.20;;;;;;5054018;28;20086;-78
2022/07/16 08:07:27;;;;;;;7.57;3.45;;;20.80;63.60;;;;;;5058175;28;20091;-77
2022/07/16 08:09:52;;;;;;;3.53;2.88;;;20.90;64.10;;;;;;5058223;28;20509;-77
2022/07/16 08:12:18;;;;;;;4.82;2.70;;;21.00;63.40;;;;;;5056839;28;20071;-77
2022/07/16 08:14:44;;;;;;;7.65;3.30;;;20.90;62.90;;;;;;5070863;28;20129;-76
2022/07/16 08:17:09;;;;;;;5.75;3.28;;;21.10;63.10;;;;;;5053383;28;20028;-76
2022/07/16 08:19:35;;;;;;;5.50;2.72;;;21.10;61.90;;;;;;5054008;28;20565;-77
2022/07/16 08:22:01;;;;;;;4.78;2.63;;;21.10;61.10;;;;;;5053519;28;20032;-77
2022/07/16 08:27:11;;;;;;;6.43;2.63;;;21.20;61.50;;;;;;5055082;28;20071;-77
2022/07/16 08:29:37;;;;;;;7.57;2.70;;;21.20;61.90;;;;;;5056182;28;20478;-77
2022/07/16 08:32:04;;;;;;;3.40;2.38;;;21.30;61.90;;;;;;5059659;28;20021;-77
2022/07/16 08:34:30;;;;;;;7.80;2.00;;;21.30;59.30;;;;;;5055578;28;20028;-78
2022/07/16 08:36:55;;;;;;;5.18;2.00;;;21.40;59.30;;;;;;5059386;28;20029;-77
2022/07/16 08:39:22;;;;;;;3.90;2.08;;;21.40;58.90;;;;;;5055622;28;20021;-77
2022/07/16 08:41:48;;;;;;;5.47;1.85;;;21.40;58.30;;;;;;5061538;28;20044;-78
2022/07/16 08:44:14;;;;;;;3.50;1.70;;;21.40;58.00;;;;;;5060972;28;20036;-77
2022/07/16 08:46:41;;;;;;;2.88;1.30;;;21.50;57.20;;;;;;5066086;28;20159;-78
2022/07/16 08:49:07;;;;;;;3.47;1.38;;;21.50;55.80;;;;;;5087543;22;20155;-72
2022/07/16 08:51:35;;;;;;;3.88;1.52;;;21.50;55.70;;;;;;5068669;28;20104;-72
2022/07/16 08:54:19;;;;;;;3.42;1.58;;;21.60;54.80;;;;;;5071956;28;20057;-72
2022/07/16 08:56:44;;;;;;;3.10;1.40;;;21.60;53.40;;;;;;5056477;28;20115;-72
2022/07/16 08:59:10;;;;;;;2.65;1.42;;;21.70;53.90;;;;;;5072613;28;20154;-73
2022/07/16 09:01:36;;;;;;;3.40;1.40;;;21.80;53.90;;;;;;5053347;28;20036;-72
2022/07/16 09:04:03;;;;;;;6.97;1.92;;;21.80;54.30;;;;;;5076771;28;20017;-73
2022/07/16 09:06:30;;;;;;;8.80;1.92;;;21.90;54.40;;;;;;5079564;28;20154;-72
2022/07/16 09:08:56;;;;;;;5.07;1.85;;;22.00;54.90;;;;;;5072362;28;20103;-72
2022/07/16 09:11:28;;;;;;;3.30;2.13;;;22.00;55.00;;;;;;5083479;28;20104;-73
2022/07/16 09:14:08;;;;;;;3.92;2.08;;;22.00;54.90;;;;;;5072078;28;20495;-73
2022/07/16 09:16:45;;;;;;;4.35;1.92;;;22.00;55.30;;;;;;5073197;28;20158;-72
2022/07/16 09:19:18;;;;;;;4.68;2.33;;;22.10;55.80;;;;;;5074151;28;20040;-72
2022/07/16 09:22:08;;;;;;;5.53;2.25;;;22.00;55.80;;;;;;5072306;28;20033;-72
2022/07/16 09:24:44;;;;;;;5.50;2.20;;;22.10;56.10;;;;;;5066888;28;20318;-72
2022/07/16 09:27:22;;;;;;;2.78;1.80;;;22.10;55.90;;;;;;5079508;28;20013;-72
2022/07/16 09:29:47;;;;;;;3.55;1.85;;;22.10;56.10;;;;;;5072916;28;20101;-73
2022/07/16 09:32:26;;;;;;;5.78;2.03;;;22.20;56.10;;;;;;5071402;28;20024;-73
2022/07/16 09:35:00;;;;;;;7.85;3.15;;;22.20;56.30;;;;;;5078949;28;20103;-73
2022/07/16 09:37:26;;;;;;;6.45;2.85;;;22.20;56.60;;;;;;5077638;28;20063;-72
2022/07/16 09:39:52;;;;;;;7.50;2.70;;;22.30;57.00;;;;;;5061271;28;20480;-71
2022/07/16 09:42:18;;;;;;;5.45;2.65;;;22.30;57.00;;;;;;5075763;28;20098;-72
2022/07/16 09:44:44;;;;;;;5.53;2.63;;;22.30;57.20;;;;;;5071389;28;20020;-72
2022/07/16 09:47:13;;;;;;;5.38;2.20;;;22.40;57.30;;;;;;5077013;28;20387;-73
2022/07/16 09:49:49;;;;;;;2.90;2.35;;;22.50;57.20;;;;;;5075154;28;20032;-72
2022/07/16 09:52:41;;;;;;;7.03;2.25;;;22.70;57.20;;;;;;5068140;28;20468;-72
2022/07/16 09:55:08;;;;;;;3.35;1.90;;;22.80;56.80;;;;;;5060023;28;20064;-74
2022/07/16 09:57:35;;;;;;;7.40;2.70;;;22.80;56.60;;;;;;5073343;28;20319;-74
2022/07/16 10:00:00;;;;;;;4.43;2.15;;;22.70;56.40;;;;;;5048955;28;20495;-73
2022/07/16 10:02:28;;;;;;;5.63;2.65;;;22.70;56.80;;;;;;5062867;28;20021;-74
2022/07/16 10:04:54;;;;;;;4.32;2.15;;;22.70;57.00;;;;;;5065223;28;20119;-74
2022/07/16 10:07:19;;;;;;;2.83;1.80;;;22.70;56.80;;;;;;5063348;28;20625;-74
2022/07/16 10:09:45;;;;;;;3.85;1.95;;;22.70;56.80;;;;;;5065987;28;20183;-75
2022/07/16 10:12:14;;;;;;;4.60;1.98;;;22.70;57.20;;;;;;5063251;28;20027;-74
2022/07/16 10:14:44;;;;;;;7.32;2.67;;;22.60;57.00;;;;;;5073083;28;20430;-74
2022/07/16 10:17:12;;;;;;;3.88;2.17;;;22.70;57.50;;;;;;5064405;28;20020;-74
2022/07/16 10:19:38;;;;;;;3.58;2.60;;;22.70;57.20;;;;;;5068438;28;20025;-72
2022/07/16 10:22:29;;;;;;;8.35;3.00;;;22.70;57.40;;;;;;5067338;28;20024;-73
2022/07/16 10:24:56;;;;;;;3.83;2.08;;;22.70;57.20;;;;;;5045975;28;20024;-73
2022/07/16 10:27:30;;;;;;;4.43;2.15;;;22.70;57.50;;;;;;5074919;28;20028;-72
2022/07/16 10:30:14;;;;;;;5.45;2.92;;;22.70;57.70;;;;;;5078010;28;20023;-73
2022/07/16 10:33:10;;;;;;;6.20;2.90;;;22.80;57.40;;;;;;5062554;28;20372;-73
2022/07/16 10:35:44;;;;;;;7.78;2.65;;;22.80;57.30;;;;;;5063417;28;20048;-73
2022/07/16 10:38:17;;;;;;;9.18;2.97;;;22.90;57.40;;;;;;5066327;28;20017;-74
2022/07/16 10:40:45;;;;;;;6.47;2.53;;;22.90;57.00;;;;;;5080354;28;20063;-73
2022/07/16 10:43:16;;;;;;;9.77;3.03;;;22.90;57.20;;;;;;5075465;28;20100;-71
2022/07/16 10:45:55;;;;;;;7.40;2.60;;;22.90;57.20;;;;;;5076155;28;20032;-73
2022/07/16 10:48:26;;;;;;;6.47;2.70;;;22.90;57.00;;;;;;5066865;28;20070;-72
2022/07/16 10:51:12;;;;;;;4.38;2.33;;;22.90;57.10;;;;;;5060755;28;20043;-72
2022/07/16 10:53:57;;;;;;;5.47;2.60;;;22.90;56.80;;;;;;5061878;28;20046;-73
2022/07/16 10:56:50;;;;;;;5.13;2.72;;;23.00;57.10;;;;;;5065113;28;20066;-73
2022/07/16 10:59:25;;;;;;;6.87;2.70;;;23.10;57.10;;;;;;5069807;28;20037;-73
2022/07/16 11:01:53;;;;;;;8.52;2.75;;;23.10;56.80;;;;;;5045354;28;20028;-72
2022/07/16 11:04:31;;;;;;;6.90;2.40;;;23.10;56.60;;;;;;5071643;28;20024;-72
2022/07/16 11:06:58;;;;;;;5.93;2.63;;;23.10;56.70;;;;;;5067221;28;20035;-72
2022/07/16 11:09:27;;;;;;;6.35;2.30;;;23.10;56.50;;;;;;5077380;28;20420;-73
2022/07/16 11:11:54;;;;;;;5.82;2.88;;;23.10;56.10;;;;;;5066860;28;20408;-73
2022/07/16 11:14:28;;;;;;;6.00;2.40;;;23.00;56.00;;;;;;5076895;28;20099;-73
2022/07/16 11:16:54;;;;;;;8.82;2.90;;;23.00;56.20;;;;;;5075086;28;20089;-72
2022/07/16 11:19:20;;;;;;;3.83;2.65;;;23.00;56.30;;;;;;5053314;28;20020;-72
2022/07/16 11:22:01;;;;;;;6.70;2.58;;;23.10;56.60;;;;;;5076408;28;20435;-71
2022/07/16 11:24:28;;;;;;;7.60;3.10;;;23.10;56.10;;;;;;5066199;28;20387;-71
2022/07/16 11:26:58;;;;;;;4.97;1.75;;;23.10;56.20;;;;;;5067530;28;20442;-71
2022/07/16 11:29:25;;;;;;;3.67;2.15;;;23.10;56.20;;;;;;5069351;28;20024;-71
2022/07/16 11:31:52;;;;;;;4.50;2.13;;;23.10;56.30;;;;;;5055310;28;20089;-72
2022/07/16 11:34:18;;;;;;;4.43;2.63;;;23.10;56.20;;;;;;5063913;28;20048;-73
2022/07/16 11:36:50;;;;;;;7.95;2.38;;;23.10;55.90;;;;;;5074635;28;20119;-72
2022/07/16 11:39:23;;;;;;;4.10;2.10;;;23.20;55.70;;;;;;5049385;28;20418;-72
2022/07/16 11:41:50;;;;;;;;;;;23.20;55.50;;;;;;5049078;28;20442;-71
2022/07/16 11:44:17;;;;;;;3.70;2.08;;;23.20;55.90;;;;;;5064746;28;19909;-72
2022/07/16 11:46:47;;;;;;;4.88;2.10;;;23.20;55.80;;;;;;5079121;28;20028;-71
2022/07/16 11:49:27;;;;;;;5.45;2.30;;;23.30;55.90;;;;;;5065879;28;20025;-71
2022/07/16 11:51:55;;;;;;;4.15;2.10;;;23.40;55.40;;;;;;5064619;28;20070;-71
2022/07/16 11:54:21;;;;;;;3.83;2.17;;;23.40;54.90;;;;;;5072406;28;20032;-73
2022/07/16 11:56:47;;;;;;;3.47;2.22;;;23.40;54.60;;;;;;5052668;28;20441;-71
2022/07/16 11:59:29;;;;;;;3.20;1.65;;;23.50;54.00;;;;;;5064586;28;20028;-72
2022/07/16 12:02:08;;;;;;;3.13;2.00;;;23.40;53.90;;;;;;5069894;28;20116;-71
2022/07/16 12:04:43;;;;;;;7.75;2.22;;;23.50;54.00;;;;;;5067398;28;20082;-72
2022/07/16 12:07:29;;;;;;;2.55;1.88;;;23.60;53.90;;;;;;5060013;28;20078;-73
2022/07/16 12:10:00;;;;;;;3.45;2.00;;;23.60;53.70;;;;;;5064093;28;20514;-72
2022/07/16 12:12:28;;;;;;;6.18;1.88;;;23.70;53.50;;;;;;5068151;28;20033;-72
2022/07/16 12:15:17;;;;;;;4.95;1.90;;;23.60;53.50;;;;;;5062445;28;20641;-72
2022/07/16 12:17:45;;;;;;;3.45;1.60;;;23.70;53.40;;;;;;5063275;28;20067;-73
2022/07/16 12:20:14;;;;;;;4.43;1.63;;;23.60;53.20;;;;;;5073201;28;20021;-71
2022/07/16 12:23:01;;;;;;;5.15;2.13;;;23.60;53.70;;;;;;5067289;28;20020;-73
2022/07/16 12:25:35;;;;;;;2.83;1.65;;;23.70;53.50;;;;;;5063964;28;20029;-74
2022/07/16 12:28:08;;;;;;;5.50;2.85;;;23.70;53.30;;;;;;5074591;28;20495;-73
2022/07/16 12:30:41;;;;;;;4.22;1.95;;;23.80;53.20;;;;;;5059018;28;20114;-72
2022/07/16 12:33:28;;;;;;;2.40;1.40;;;23.90;52.30;;;;;;5064620;28;20028;-71
2022/07/16 12:36:00;;;;;;;5.55;2.15;;;23.80;52.00;;;;;;5054604;28;20123;-73
2022/07/16 12:38:54;;;;;;;5.43;2.00;;;23.80;52.30;;;;;;5068069;28;20028;-72
2022/07/16 12:41:20;;;;;;;2.42;1.73;;;23.90;52.00;;;;;;5038484;28;20469;-72
2022/07/16 12:43:55;;;;;;;5.05;1.95;;;23.80;51.90;;;;;;5072086;28;20046;-73
2022/07/16 12:46:26;;;;;;;3.30;1.30;;;23.90;51.90;;;;;;5061925;28;20307;-74
2022/07/16 12:49:02;;;;;;;5.50;1.80;;;23.80;52.50;;;;;;5064861;28;20052;-74
2022/07/16 12:51:30;;;;;;;5.05;1.40;;;23.80;51.60;;;;;;5064141;28;20055;-73
2022/07/16 12:53:58;;;;;;;3.65;1.30;;;23.80;51.60;;;;;;5074880;28;20028;-73
2022/07/16 12:59:09;;;;;;;3.20;1.15;;;23.90;51.50;;;;;;5072604;28;20395;-73
2022/07/16 13:01:36;;;;;;;4.95;1.52;;;23.90;51.20;;;;;;5072200;28;20103;-74